Air Resources Laboratory banner image
Air Resources Laboratory web site National Oceanic and Atmospheric Administration (NOAA)

ne metar


KAIA 210953Z AUTO 18006KT 10SM CLR 01/M01 A3014 RMK AO2 SLP198 T00061011=
KANW 210955Z AUTO 20014G18KT 10SM CLR 05/M01 A3012 RMK AO2 T00461015=
KAUH 210955Z AUTO 18007KT 10SM CLR 03/M03 A3028 RMK AO2 T00301033=
KBBW 210953Z AUTO 16006KT 10SM CLR 04/M03 A3020 RMK AO2 SLP228 T00441028=
KBFF 210953Z AUTO 04004KT 10SM CLR 03/01 A3015 RMK AO2 SLP192 T00330006=
KBIE 210955Z AUTO 16006KT 10SM CLR 02/M02 A3033 RMK AO2 T00231018=
KCDR 210953Z AUTO 21003KT 10SM CLR 06/M01 A3009 RMK AO2 SLP187 T00611006=
KFET 210955Z AUTO 15007KT 10SM CLR 03/M03 A3031 RMK AO2 T00311030=
KGRI 210953Z AUTO 18012KT 10SM CLR 04/M03 A3027 RMK AO2 SLP260 T00391033=
KHDE 210955Z AUTO 19012KT 10SM CLR 05/M01 A3024 RMK AO2 T00451009=
KHSI 210953Z AUTO 18007KT 10SM CLR 03/M02 A3028 RMK AO2 SLP259 T00331022=
KIML 210953Z AUTO 16003KT 10SM CLR 02/M01 A3019 RMK AO2 SLP222 T00171011=
KLBF 210953Z AUTO 20013KT 10SM CLR 08/01 A3019 RMK AO2 SLP216 T00830011=
KLNK 210954Z AUTO 14004KT 10SM CLR 01/M03 A3033 RMK AO2 SLP275 T00061033 $=
KLXN 210955Z AUTO 17008KT 10SM CLR 07/00 A3022 RMK AO2 T00660000=
KMCK 210953Z AUTO 18008KT 10SM CLR 07/02 A3021 RMK AO2 SLP224 T00670017=
KODX 210953Z AUTO 10004KT 10SM CLR 00/M03 A3022 RMK AO2 SLP245 T00001028 $=
KOFF 210956Z AUTO 15003KT 10SM CLR 00/M04 A3033 RMK AO2 SLP281 T00001037 $=
KOFK 210956Z AUTO 16006KT 10SM CLR 01/M03 A3025 RMK AO2 SLP253 T00111033=
KOGA 210955Z AUTO 00000KT 10SM CLR 03/00 A3018 RMK AO2 T00320000=
KOLU 210956Z AUTO 18010KT 10SM CLR 04/M04 A3028 RMK AO2 SLP264 T00391039=
KOMA 210952Z 17008KT 10SM CLR 02/M04 A3033 RMK AO2 SLP277 T00171044=
KONL 210955Z AUTO 18011KT 10SM CLR 04/M03 A3017 RMK AO2 T00441035=
KSNY 210953Z AUTO 27009KT 10SM CLR 01/M02 A3018 RMK AO2 SLP206 T00111017=
KTQE 210954Z AUTO 19007KT 10SM CLR M02/M03 A3032 RMK AO2 SLP270 T10221033=
KVTN 210952Z AUTO 21006KT 10SM CLR 08/00 A3009 RMK AO2 SLP191 T00830000=